9TS5 weather

CLOSED Wilford Hall Medical Center Heliport
San Antonio, Texas, United States

Public forecast

Using degrees Fahrenheit for public forecast. Weather courtesy of forecast.io.

METAR (pilot weather report)

Closest report is Lackland Air Force Base, 2.4 nm (4.4 km) ESE. Retrieved 2019/07/21 17:56 UTC (18 minutes ago):

KSKF 211756Z AUTO 13003G16KT 10SM FEW210 34/21 A2995 RMK AO2 SLP133 T03370208 10337 20245 56007 $

TAF (pilot weather forecast)

Closest forecast is Lackland Air Force Base, 2.4 nm (4.4 km) ESE. Retrieved 2019/07/21 18:26 UTC (0 seconds ago):

TAF KSKF 211800Z 2118/2224 15014KT 9999 FEW060 SCT250 QNH2982INS TEMPO 2123/2204 14016G25KT BECMG 2205/2206 14009KT 9999 SCT250 QNH2991INS BECMG 2209/2210 14006KT 9999 BKN010 QNH2992INS BECMG 2214/2215 16008KT 9999 SCT030 QNH2997INS TX37/2122Z TN25/2212Z